sensor_id;sensor_type;location;lat;lon;timestamp;pressure;altitude;pressure_sealevel;temperature;humidity
7586;BME280;12459;42.646;23.292;2023-05-09T00:06:46;93776.44;;;13.29;100.00
7586;BME280;12459;42.646;23.292;2023-05-09T00:21:48;93762.97;;;13.29;100.00
7586;BME280;12459;42.646;23.292;2023-05-09T00:36:50;93958.34;;;14.49;100.00
7586;BME280;12459;42.646;23.292;2023-05-09T00:51:51;94038.69;;;14.78;100.00
7586;BME280;12459;42.646;23.292;2023-05-09T01:22:06;93609.63;;;11.64;100.00
7586;BME280;12459;42.646;23.292;2023-05-09T01:37:10;93964.38;;;14.57;100.00
7586;BME280;12459;42.646;23.292;2023-05-09T01:52:15;93972.88;;;14.55;100.00
7586;BME280;12459;42.646;23.292;2023-05-09T02:07:19;93536.97;;;11.28;100.00
7586;BME280;12459;42.646;23.292;2023-05-09T02:22:22;93742.13;;;12.94;100.00
7586;BME280;12459;42.646;23.292;2023-05-09T02:37:24;93778.50;;;13.22;100.00
7586;BME280;12459;42.646;23.292;2023-05-09T02:52:26;93885.44;;;13.61;100.00
7586;BME280;12459;42.646;23.292;2023-05-09T03:07:28;93857.66;;;13.01;100.00
7586;BME280;12459;42.646;23.292;2023-05-09T03:22:30;93989.31;;;14.41;100.00
7586;BME280;12459;42.646;23.292;2023-05-09T03:37:32;94012.34;;;14.06;100.00
7586;BME280;12459;42.646;23.292;2023-05-09T03:52:34;93961.97;;;14.03;100.00
7586;BME280;12459;42.646;23.292;2023-05-09T04:07:37;93740.09;;;12.35;100.00
7586;BME280;12459;42.646;23.292;2023-05-09T04:22:39;93738.50;;;12.37;100.00
7586;BME280;12459;42.646;23.292;2023-05-09T04:37:41;93992.84;;;14.38;100.00
7586;BME280;12459;42.646;23.292;2023-05-09T04:52:42;93577.69;;;10.96;100.00
7586;BME280;12459;42.646;23.292;2023-05-09T05:07:44;94064.34;;;14.86;100.00
7586;BME280;12459;42.646;23.292;2023-05-09T05:22:46;93943.31;;;13.53;100.00
7586;BME280;12459;42.646;23.292;2023-05-09T05:37:48;93871.75;;;13.52;100.00
7586;BME280;12459;42.646;23.292;2023-05-09T05:52:49;93788.63;;;13.14;100.00
7586;BME280;12459;42.646;23.292;2023-05-09T06:07:51;93779.50;;;13.08;100.00
7586;BME280;12459;42.646;23.292;2023-05-09T06:22:53;94059.66;;;15.06;100.00
7586;BME280;12459;42.646;23.292;2023-05-09T06:37:55;93809.06;;;13.31;100.00
7586;BME280;12459;42.646;23.292;2023-05-09T06:52:56;93992.47;;;14.59;100.00
7586;BME280;12459;42.646;23.292;2023-05-09T07:07:59;94068.59;;;15.03;100.00
7586;BME280;12459;42.646;23.292;2023-05-09T07:23:03;93915.94;;;14.14;100.00
7586;BME280;12459;42.646;23.292;2023-05-09T07:38:06;93820.59;;;13.32;100.00
7586;BME280;12459;42.646;23.292;2023-05-09T07:53:08;93881.34;;;13.92;99.02
7586;BME280;12459;42.646;23.292;2023-05-09T08:08:10;94015.84;;;14.82;97.76
7586;BME280;12459;42.646;23.292;2023-05-09T08:23:12;93905.97;;;14.30;93.69
7586;BME280;12459;42.646;23.292;2023-05-09T08:38:13;93893.00;;;14.42;94.14
7586;BME280;12459;42.646;23.292;2023-05-09T08:53:16;93951.03;;;15.02;93.75
7586;BME280;12459;42.646;23.292;2023-05-09T09:08:18;93820.41;;;14.83;89.22
7586;BME280;12459;42.646;23.292;2023-05-09T09:23:24;93885.06;;;14.87;92.10
7586;BME280;12459;42.646;23.292;2023-05-09T09:38:25;93720.59;;;12.94;93.76
7586;BME280;12459;42.646;23.292;2023-05-09T09:53:27;93881.16;;;14.19;94.93
7586;BME280;12459;42.646;23.292;2023-05-09T10:08:32;94004.97;;;14.86;96.39
7586;BME280;12459;42.646;23.292;2023-05-09T10:23:36;93823.53;;;13.97;95.40
7586;BME280;12459;42.646;23.292;2023-05-09T10:38:39;93928.47;;;14.60;97.96
7586;BME280;12459;42.646;23.292;2023-05-09T10:53:41;94010.16;;;15.45;96.01
7586;BME280;12459;42.646;23.292;2023-05-09T11:08:46;93843.56;;;14.48;99.54
7586;BME280;12459;42.646;23.292;2023-05-09T11:23:48;94000.97;;;15.75;95.73
7586;BME280;12459;42.646;23.292;2023-05-09T11:39:03;94003.81;;;15.84;95.80
7586;BME280;12459;42.646;23.292;2023-05-09T11:54:07;93999.94;;;15.85;95.00
7586;BME280;12459;42.646;23.292;2023-05-09T12:09:09;93926.13;;;14.78;94.76
7586;BME280;12459;42.646;23.292;2023-05-09T12:24:12;93960.94;;;14.73;96.07
7586;BME280;12459;42.646;23.292;2023-05-09T12:39:14;94009.56;;;15.05;96.64
7586;BME280;12459;42.646;23.292;2023-05-09T12:54:24;94003.16;;;14.63;99.65
7586;BME280;12459;42.646;23.292;2023-05-09T13:09:26;93950.75;;;14.44;100.00
7586;BME280;12459;42.646;23.292;2023-05-09T13:24:28;93945.09;;;14.19;100.00
7586;BME280;12459;42.646;23.292;2023-05-09T13:39:30;93764.06;;;13.52;98.28
7586;BME280;12459;42.646;23.292;2023-05-09T13:54:32;93943.16;;;14.75;96.49
7586;BME280;12459;42.646;23.292;2023-05-09T14:09:35;93713.00;;;12.89;96.49
7586;BME280;12459;42.646;23.292;2023-05-09T14:24:40;93392.19;;;10.31;95.87
7586;BME280;12459;42.646;23.292;2023-05-09T14:39:42;93924.53;;;13.89;96.69
7586;BME280;12459;42.646;23.292;2023-05-09T14:54:45;93386.09;;;10.00;97.53
7586;BME280;12459;42.646;23.292;2023-05-09T15:09:47;93717.06;;;12.34;96.28
7586;BME280;12459;42.646;23.292;2023-05-09T15:24:49;93768.31;;;12.90;94.21
7586;BME280;12459;42.646;23.292;2023-05-09T15:39:51;93912.59;;;13.27;98.61
7586;BME280;12459;42.646;23.292;2023-05-09T15:54:54;93567.16;;;10.81;100.00
7586;BME280;12459;42.646;23.292;2023-05-09T16:09:56;93963.16;;;13.12;100.00
7586;BME280;12459;42.646;23.292;2023-05-09T16:24:58;93708.91;;;11.67;100.00
7586;BME280;12459;42.646;23.292;2023-05-09T16:39:59;93819.97;;;11.80;100.00
7586;BME280;12459;42.646;23.292;2023-05-09T16:55:02;93664.16;;;9.94;100.00
7586;BME280;12459;42.646;23.292;2023-05-09T17:10:05;93766.22;;;11.54;100.00
7586;BME280;12459;42.646;23.292;2023-05-09T17:25:07;93737.72;;;11.02;100.00
7586;BME280;12459;42.646;23.292;2023-05-09T17:40:09;94014.56;;;12.67;100.00
7586;BME280;12459;42.646;23.292;2023-05-09T17:55:11;93682.66;;;10.64;100.00
7586;BME280;12459;42.646;23.292;2023-05-09T18:10:13;94032.69;;;12.90;100.00
7586;BME280;12459;42.646;23.292;2023-05-09T18:25:15;94010.59;;;12.45;100.00
7586;BME280;12459;42.646;23.292;2023-05-09T18:40:17;94004.22;;;12.01;100.00
7586;BME280;12459;42.646;23.292;2023-05-09T18:55:20;94069.88;;;11.97;100.00
7586;BME280;12459;42.646;23.292;2023-05-09T19:10:22;94015.84;;;11.50;100.00
7586;BME280;12459;42.646;23.292;2023-05-09T19:25:25;94049.25;;;11.45;100.00
7586;BME280;12459;42.646;23.292;2023-05-09T19:40:26;93983.50;;;11.19;100.00
7586;BME280;12459;42.646;23.292;2023-05-09T19:55:28;94014.75;;;11.85;100.00
7586;BME280;12459;42.646;23.292;2023-05-09T20:10:30;94016.19;;;11.97;100.00
7586;BME280;12459;42.646;23.292;2023-05-09T20:25:33;94035.81;;;11.90;100.00
7586;BME280;12459;42.646;23.292;2023-05-09T20:40:35;93944.47;;;11.15;100.00
7586;BME280;12459;42.646;23.292;2023-05-09T20:55:37;93381.84;;;7.41;100.00
7586;BME280;12459;42.646;23.292;2023-05-09T21:10:38;93561.34;;;8.32;100.00
7586;BME280;12459;42.646;23.292;2023-05-09T21:25:40;94012.16;;;12.12;100.00
7586;BME280;12459;42.646;23.292;2023-05-09T21:40:42;93316.09;;;7.02;100.00
7586;BME280;12459;42.646;23.292;2023-05-09T21:55:44;94015.59;;;11.75;100.00
7586;BME280;12459;42.646;23.292;2023-05-09T22:10:46;93919.28;;;11.05;100.00
7586;BME280;12459;42.646;23.292;2023-05-09T22:25:48;93917.88;;;11.31;100.00
7586;BME280;12459;42.646;23.292;2023-05-09T22:40:50;93881.09;;;11.28;100.00
7586;BME280;12459;42.646;23.292;2023-05-09T22:55:51;93686.78;;;9.86;100.00
7586;BME280;12459;42.646;23.292;2023-05-09T23:10:55;93781.63;;;10.40;100.00
7586;BME280;12459;42.646;23.292;2023-05-09T23:25:56;93788.28;;;10.14;100.00
7586;BME280;12459;42.646;23.292;2023-05-09T23:40:58;93681.25;;;9.00;100.00
7586;BME280;12459;42.646;23.292;2023-05-09T23:56:01;93930.94;;;11.67;100.00
